KFSO

Franklin County State Airport

Highgate, Vermont, USA
METAR KFSO 211535Z AUTO 29007G17KT 240V310 2 1/2SM HZ SCT013 OVC022 M21/M25 A2997 RMK AO2 T12071246
Observed Flight Rules
Jan-21 @ 15:35 UTC (19 minutes ago) Instrument Flight Rules
Wind Visibility Clouds Conditions
290° at 7 knots
 Gusting to 17 knots
2 1/2 miles
  • Scattered at 1,300' AGL
  • Overcast at 2,200' AGL
  • Haze
Temperatures Readings
Current -21°C / -6°F
Dewpoint -25°C / -13°F
Humidity 70%
Altimeter 29.97" Hg
Pressure 1014.92 hPa
Elevation 70
METAR KFSO 211535Z AUTO 29007G17KT 240V310 2 1/2SM HZ SCT013 OVC022 M21/M25 A2997 RMK AO2 T12071246
Observed Flight Rules
Jan-21 @ 15:35 UTC
(19 minutes ago)
IFR
Wind Visibility
290° at 7 knots
 Gusting to 17 knots
2 1/2 miles
Clouds
  • Scattered at 1,300' AGL
  • Overcast at 2,200' AGL
Conditions
  • Haze
Temperature Dewpoint
-21°C / -6°F -25°C / -13°F
Humidity Altimeter Pressure
70% 29.97" Hg 1014.92 hPa